sensor_id;sensor_type;location;lat;lon;timestamp;P1;durP1;ratioP1;P2;durP2;ratioP2
67053;SDS011;53960;51.826;5.850;2023-04-25T00:00:56;9.63;;;1.93;;
67053;SDS011;53960;51.826;5.850;2023-04-25T00:03:22;9.03;;;2.10;;
67053;SDS011;53960;51.826;5.850;2023-04-25T00:05:50;9.30;;;2.08;;
67053;SDS011;53960;51.826;5.850;2023-04-25T00:08:16;10.50;;;2.10;;
67053;SDS011;53960;51.826;5.850;2023-04-25T00:10:42;9.50;;;2.03;;
67053;SDS011;53960;51.826;5.850;2023-04-25T00:13:07;11.33;;;2.20;;
67053;SDS011;53960;51.826;5.850;2023-04-25T00:15:33;7.85;;;1.75;;
67053;SDS011;53960;51.826;5.850;2023-04-25T00:17:59;10.05;;;2.10;;
67053;SDS011;53960;51.826;5.850;2023-04-25T00:20:24;9.37;;;2.10;;
67053;SDS011;53960;51.826;5.850;2023-04-25T00:22:50;9.10;;;2.37;;
67053;SDS011;53960;51.826;5.850;2023-04-25T00:25:17;10.50;;;2.83;;
67053;SDS011;53960;51.826;5.850;2023-04-25T00:27:43;13.60;;;3.40;;
67053;SDS011;53960;51.826;5.850;2023-04-25T00:30:08;8.17;;;2.00;;
67053;SDS011;53960;51.826;5.850;2023-04-25T00:32:34;8.93;;;2.40;;
67053;SDS011;53960;51.826;5.850;2023-04-25T00:34:59;9.60;;;2.33;;
67053;SDS011;53960;51.826;5.850;2023-04-25T00:37:25;8.90;;;2.57;;
67053;SDS011;53960;51.826;5.850;2023-04-25T00:39:50;8.60;;;2.40;;
67053;SDS011;53960;51.826;5.850;2023-04-25T00:42:16;9.57;;;2.10;;
67053;SDS011;53960;51.826;5.850;2023-04-25T00:44:41;11.90;;;3.23;;
67053;SDS011;53960;51.826;5.850;2023-04-25T00:47:08;11.15;;;2.80;;
67053;SDS011;53960;51.826;5.850;2023-04-25T00:49:33;13.33;;;2.40;;
67053;SDS011;53960;51.826;5.850;2023-04-25T00:51:59;10.77;;;2.33;;
67053;SDS011;53960;51.826;5.850;2023-04-25T00:54:24;10.07;;;2.30;;
67053;SDS011;53960;51.826;5.850;2023-04-25T00:56:50;10.52;;;2.78;;
67053;SDS011;53960;51.826;5.850;2023-04-25T00:59:15;11.67;;;2.90;;
67053;SDS011;53960;51.826;5.850;2023-04-25T01:01:43;9.45;;;2.75;;
67053;SDS011;53960;51.826;5.850;2023-04-25T01:04:08;10.87;;;2.77;;
67053;SDS011;53960;51.826;5.850;2023-04-25T01:06:34;12.43;;;2.47;;
67053;SDS011;53960;51.826;5.850;2023-04-25T01:08:59;13.32;;;2.63;;
67053;SDS011;53960;51.826;5.850;2023-04-25T01:11:25;10.53;;;3.27;;
67053;SDS011;53960;51.826;5.850;2023-04-25T01:13:50;10.20;;;2.63;;
67053;SDS011;53960;51.826;5.850;2023-04-25T01:16:16;12.00;;;2.80;;
67053;SDS011;53960;51.826;5.850;2023-04-25T01:18:41;12.47;;;2.73;;
67053;SDS011;53960;51.826;5.850;2023-04-25T01:21:08;13.63;;;2.60;;
67053;SDS011;53960;51.826;5.850;2023-04-25T01:23:35;9.00;;;3.10;;
67053;SDS011;53960;51.826;5.850;2023-04-25T01:26:01;11.27;;;3.15;;
67053;SDS011;53960;51.826;5.850;2023-04-25T01:28:27;11.52;;;2.85;;
67053;SDS011;53960;51.826;5.850;2023-04-25T01:30:53;13.38;;;3.17;;
67053;SDS011;53960;51.826;5.850;2023-04-25T01:33:19;11.77;;;3.20;;
67053;SDS011;53960;51.826;5.850;2023-04-25T01:35:46;13.43;;;3.22;;
67053;SDS011;53960;51.826;5.850;2023-04-25T01:38:12;11.93;;;3.40;;
67053;SDS011;53960;51.826;5.850;2023-04-25T01:40:38;12.33;;;3.80;;
67053;SDS011;53960;51.826;5.850;2023-04-25T01:43:05;12.15;;;3.58;;
67053;SDS011;53960;51.826;5.850;2023-04-25T01:45:33;12.43;;;3.88;;
67053;SDS011;53960;51.826;5.850;2023-04-25T01:47:58;13.60;;;3.27;;
67053;SDS011;53960;51.826;5.850;2023-04-25T01:50:24;10.32;;;3.05;;
67053;SDS011;53960;51.826;5.850;2023-04-25T01:52:50;13.80;;;4.03;;
67053;SDS011;53960;51.826;5.850;2023-04-25T01:55:15;17.75;;;3.45;;
67053;SDS011;53960;51.826;5.850;2023-04-25T01:57:41;15.87;;;3.77;;
67053;SDS011;53960;51.826;5.850;2023-04-25T02:00:06;12.93;;;3.90;;
67053;SDS011;53960;51.826;5.850;2023-04-25T02:02:33;13.20;;;3.28;;
67053;SDS011;53960;51.826;5.850;2023-04-25T02:04:59;14.27;;;3.75;;
67053;SDS011;53960;51.826;5.850;2023-04-25T02:07:25;13.03;;;3.33;;
67053;SDS011;53960;51.826;5.850;2023-04-25T02:09:51;13.70;;;3.63;;
67053;SDS011;53960;51.826;5.850;2023-04-25T02:12:16;12.53;;;3.10;;
67053;SDS011;53960;51.826;5.850;2023-04-25T02:14:41;12.93;;;2.83;;
67053;SDS011;53960;51.826;5.850;2023-04-25T02:17:07;15.13;;;3.27;;
67053;SDS011;53960;51.826;5.850;2023-04-25T02:19:32;10.83;;;3.10;;
67053;SDS011;53960;51.826;5.850;2023-04-25T02:21:57;13.80;;;4.07;;
67053;SDS011;53960;51.826;5.850;2023-04-25T02:24:23;13.33;;;3.07;;
67053;SDS011;53960;51.826;5.850;2023-04-25T02:26:48;11.20;;;3.28;;
67053;SDS011;53960;51.826;5.850;2023-04-25T02:29:14;14.17;;;3.47;;
67053;SDS011;53960;51.826;5.850;2023-04-25T02:31:40;12.45;;;3.58;;
67053;SDS011;53960;51.826;5.850;2023-04-25T02:34:05;13.33;;;3.60;;
67053;SDS011;53960;51.826;5.850;2023-04-25T02:36:30;11.07;;;3.60;;
67053;SDS011;53960;51.826;5.850;2023-04-25T02:38:59;11.55;;;3.15;;
67053;SDS011;53960;51.826;5.850;2023-04-25T02:41:25;12.25;;;3.45;;
67053;SDS011;53960;51.826;5.850;2023-04-25T02:43:50;14.00;;;3.47;;
67053;SDS011;53960;51.826;5.850;2023-04-25T02:46:15;13.60;;;3.80;;
67053;SDS011;53960;51.826;5.850;2023-04-25T02:48:41;11.67;;;3.43;;
67053;SDS011;53960;51.826;5.850;2023-04-25T02:51:06;13.70;;;3.57;;
67053;SDS011;53960;51.826;5.850;2023-04-25T02:53:31;12.30;;;3.57;;
67053;SDS011;53960;51.826;5.850;2023-04-25T02:55:57;11.87;;;3.50;;
67053;SDS011;53960;51.826;5.850;2023-04-25T02:58:24;14.70;;;3.78;;
67053;SDS011;53960;51.826;5.850;2023-04-25T03:00:49;13.82;;;3.88;;
67053;SDS011;53960;51.826;5.850;2023-04-25T03:03:14;13.10;;;3.20;;
67053;SDS011;53960;51.826;5.850;2023-04-25T03:05:42;12.73;;;3.80;;
67053;SDS011;53960;51.826;5.850;2023-04-25T03:08:08;13.33;;;3.50;;
67053;SDS011;53960;51.826;5.850;2023-04-25T03:10:33;18.20;;;3.57;;
67053;SDS011;53960;51.826;5.850;2023-04-25T03:12:59;13.05;;;3.50;;
67053;SDS011;53960;51.826;5.850;2023-04-25T03:15:24;11.67;;;3.37;;
67053;SDS011;53960;51.826;5.850;2023-04-25T03:17:49;13.80;;;2.80;;
67053;SDS011;53960;51.826;5.850;2023-04-25T03:20:15;14.57;;;3.20;;
67053;SDS011;53960;51.826;5.850;2023-04-25T03:22:40;13.70;;;3.50;;
67053;SDS011;53960;51.826;5.850;2023-04-25T03:25:06;17.97;;;3.60;;
67053;SDS011;53960;51.826;5.850;2023-04-25T03:27:32;13.00;;;3.15;;
67053;SDS011;53960;51.826;5.850;2023-04-25T03:29:57;14.13;;;3.23;;
67053;SDS011;53960;51.826;5.850;2023-04-25T03:32:22;12.90;;;3.20;;
67053;SDS011;53960;51.826;5.850;2023-04-25T03:34:48;12.27;;;3.73;;
67053;SDS011;53960;51.826;5.850;2023-04-25T03:37:13;15.47;;;3.77;;
67053;SDS011;53960;51.826;5.850;2023-04-25T03:39:38;12.43;;;3.20;;
67053;SDS011;53960;51.826;5.850;2023-04-25T03:42:04;13.73;;;3.97;;
67053;SDS011;53960;51.826;5.850;2023-04-25T03:44:29;15.75;;;3.65;;
67053;SDS011;53960;51.826;5.850;2023-04-25T03:46:54;16.00;;;3.43;;
67053;SDS011;53960;51.826;5.850;2023-04-25T03:49:20;13.60;;;3.40;;
67053;SDS011;53960;51.826;5.850;2023-04-25T03:51:45;11.07;;;3.00;;
67053;SDS011;53960;51.826;5.850;2023-04-25T03:54:11;12.37;;;3.20;;
67053;SDS011;53960;51.826;5.850;2023-04-25T03:56:36;13.80;;;3.20;;
67053;SDS011;53960;51.826;5.850;2023-04-25T03:59:01;20.00;;;4.43;;
67053;SDS011;53960;51.826;5.850;2023-04-25T04:01:26;15.43;;;3.67;;
67053;SDS011;53960;51.826;5.850;2023-04-25T04:03:52;12.90;;;3.40;;
67053;SDS011;53960;51.826;5.850;2023-04-25T04:06:17;12.80;;;4.23;;
67053;SDS011;53960;51.826;5.850;2023-04-25T04:08:43;13.73;;;3.67;;
67053;SDS011;53960;51.826;5.850;2023-04-25T04:11:09;19.07;;;4.17;;
67053;SDS011;53960;51.826;5.850;2023-04-25T04:13:35;13.47;;;3.53;;
67053;SDS011;53960;51.826;5.850;2023-04-25T04:16:00;14.48;;;3.15;;
67053;SDS011;53960;51.826;5.850;2023-04-25T04:18:25;15.10;;;3.67;;
67053;SDS011;53960;51.826;5.850;2023-04-25T04:20:51;14.47;;;3.80;;
67053;SDS011;53960;51.826;5.850;2023-04-25T04:23:16;16.13;;;3.73;;
67053;SDS011;53960;51.826;5.850;2023-04-25T04:25:41;11.93;;;3.63;;
67053;SDS011;53960;51.826;5.850;2023-04-25T04:28:07;13.50;;;4.20;;
67053;SDS011;53960;51.826;5.850;2023-04-25T04:30:32;14.32;;;3.47;;
67053;SDS011;53960;51.826;5.850;2023-04-25T04:33:01;15.37;;;4.77;;
67053;SDS011;53960;51.826;5.850;2023-04-25T04:35:26;13.70;;;3.70;;
67053;SDS011;53960;51.826;5.850;2023-04-25T04:37:52;12.23;;;3.37;;
67053;SDS011;53960;51.826;5.850;2023-04-25T04:40:18;12.77;;;4.25;;
67053;SDS011;53960;51.826;5.850;2023-04-25T04:42:44;15.03;;;4.03;;
67053;SDS011;53960;51.826;5.850;2023-04-25T04:45:12;12.82;;;4.32;;
67053;SDS011;53960;51.826;5.850;2023-04-25T04:47:38;16.43;;;4.13;;
67053;SDS011;53960;51.826;5.850;2023-04-25T04:50:04;15.60;;;3.28;;
67053;SDS011;53960;51.826;5.850;2023-04-25T04:52:34;14.50;;;4.20;;
67053;SDS011;53960;51.826;5.850;2023-04-25T04:55:01;13.60;;;3.45;;
67053;SDS011;53960;51.826;5.850;2023-04-25T04:57:27;12.10;;;3.73;;
67053;SDS011;53960;51.826;5.850;2023-04-25T04:59:53;12.50;;;3.30;;
67053;SDS011;53960;51.826;5.850;2023-04-25T05:02:18;14.03;;;3.90;;
67053;SDS011;53960;51.826;5.850;2023-04-25T05:04:43;12.30;;;4.10;;
67053;SDS011;53960;51.826;5.850;2023-04-25T05:07:09;13.87;;;3.83;;
67053;SDS011;53960;51.826;5.850;2023-04-25T05:09:34;14.50;;;4.13;;
67053;SDS011;53960;51.826;5.850;2023-04-25T05:12:00;16.60;;;3.87;;
67053;SDS011;53960;51.826;5.850;2023-04-25T05:14:26;14.82;;;3.60;;
67053;SDS011;53960;51.826;5.850;2023-04-25T05:16:51;13.40;;;3.60;;
67053;SDS011;53960;51.826;5.850;2023-04-25T05:19:17;14.07;;;3.57;;
67053;SDS011;53960;51.826;5.850;2023-04-25T05:21:42;14.63;;;3.80;;
67053;SDS011;53960;51.826;5.850;2023-04-25T05:24:08;14.57;;;3.50;;
67053;SDS011;53960;51.826;5.850;2023-04-25T05:26:33;19.40;;;3.77;;
67053;SDS011;53960;51.826;5.850;2023-04-25T05:28:58;15.33;;;3.33;;
67053;SDS011;53960;51.826;5.850;2023-04-25T05:31:24;16.80;;;3.47;;
67053;SDS011;53960;51.826;5.850;2023-04-25T05:33:50;15.00;;;3.40;;
67053;SDS011;53960;51.826;5.850;2023-04-25T05:36:15;10.93;;;3.13;;
67053;SDS011;53960;51.826;5.850;2023-04-25T05:38:40;12.87;;;3.13;;
67053;SDS011;53960;51.826;5.850;2023-04-25T05:41:06;12.73;;;3.00;;
67053;SDS011;53960;51.826;5.850;2023-04-25T05:43:32;13.65;;;3.13;;
67053;SDS011;53960;51.826;5.850;2023-04-25T05:45:57;10.93;;;2.77;;
67053;SDS011;53960;51.826;5.850;2023-04-25T05:48:23;13.90;;;3.07;;
67053;SDS011;53960;51.826;5.850;2023-04-25T05:50:48;11.40;;;3.08;;
67053;SDS011;53960;51.826;5.850;2023-04-25T05:53:14;11.23;;;2.87;;
67053;SDS011;53960;51.826;5.850;2023-04-25T05:55:39;9.77;;;2.40;;
67053;SDS011;53960;51.826;5.850;2023-04-25T05:58:05;13.63;;;3.40;;
67053;SDS011;53960;51.826;5.850;2023-04-25T06:00:30;14.60;;;2.63;;
67053;SDS011;53960;51.826;5.850;2023-04-25T06:02:55;11.73;;;2.53;;
67053;SDS011;53960;51.826;5.850;2023-04-25T06:05:21;10.00;;;2.27;;
67053;SDS011;53960;51.826;5.850;2023-04-25T06:07:46;9.97;;;2.13;;
67053;SDS011;53960;51.826;5.850;2023-04-25T06:10:11;9.47;;;2.50;;
67053;SDS011;53960;51.826;5.850;2023-04-25T06:12:37;9.80;;;2.43;;
67053;SDS011;53960;51.826;5.850;2023-04-25T06:15:03;10.63;;;2.60;;
67053;SDS011;53960;51.826;5.850;2023-04-25T06:17:29;13.80;;;2.30;;
67053;SDS011;53960;51.826;5.850;2023-04-25T06:19:55;9.80;;;2.20;;
67053;SDS011;53960;51.826;5.850;2023-04-25T06:22:20;11.27;;;2.30;;
67053;SDS011;53960;51.826;5.850;2023-04-25T06:24:46;11.03;;;2.50;;
67053;SDS011;53960;51.826;5.850;2023-04-25T06:27:11;13.80;;;2.67;;
67053;SDS011;53960;51.826;5.850;2023-04-25T06:29:36;10.47;;;2.83;;
67053;SDS011;53960;51.826;5.850;2023-04-25T06:32:02;11.40;;;2.40;;
67053;SDS011;53960;51.826;5.850;2023-04-25T06:34:27;10.27;;;2.37;;
67053;SDS011;53960;51.826;5.850;2023-04-25T06:36:52;9.80;;;2.00;;
67053;SDS011;53960;51.826;5.850;2023-04-25T06:39:18;12.20;;;2.40;;
67053;SDS011;53960;51.826;5.850;2023-04-25T06:41:45;11.63;;;2.15;;
67053;SDS011;53960;51.826;5.850;2023-04-25T06:44:10;11.93;;;2.20;;
67053;SDS011;53960;51.826;5.850;2023-04-25T06:46:35;10.17;;;2.20;;
67053;SDS011;53960;51.826;5.850;2023-04-25T06:49:01;14.33;;;2.50;;
67053;SDS011;53960;51.826;5.850;2023-04-25T06:51:26;10.07;;;2.10;;
67053;SDS011;53960;51.826;5.850;2023-04-25T06:53:54;10.05;;;2.13;;
67053;SDS011;53960;51.826;5.850;2023-04-25T06:56:19;10.83;;;2.53;;
67053;SDS011;53960;51.826;5.850;2023-04-25T06:58:46;10.85;;;1.67;;
67053;SDS011;53960;51.826;5.850;2023-04-25T07:01:11;12.37;;;2.60;;
67053;SDS011;53960;51.826;5.850;2023-04-25T07:03:36;11.40;;;2.40;;
67053;SDS011;53960;51.826;5.850;2023-04-25T07:06:03;10.07;;;2.08;;
67053;SDS011;53960;51.826;5.850;2023-04-25T07:08:28;11.32;;;2.00;;
67053;SDS011;53960;51.826;5.850;2023-04-25T07:10:54;11.07;;;2.13;;
67053;SDS011;53960;51.826;5.850;2023-04-25T07:13:20;9.52;;;2.30;;
67053;SDS011;53960;51.826;5.850;2023-04-25T07:15:45;9.53;;;2.10;;
67053;SDS011;53960;51.826;5.850;2023-04-25T07:18:13;8.38;;;2.13;;
67053;SDS011;53960;51.826;5.850;2023-04-25T07:20:38;13.17;;;2.10;;
67053;SDS011;53960;51.826;5.850;2023-04-25T07:23:03;11.17;;;1.90;;
67053;SDS011;53960;51.826;5.850;2023-04-25T07:25:29;10.90;;;1.90;;
67053;SDS011;53960;51.826;5.850;2023-04-25T07:27:55;12.77;;;1.75;;
67053;SDS011;53960;51.826;5.850;2023-04-25T07:30:21;11.33;;;2.43;;
67053;SDS011;53960;51.826;5.850;2023-04-25T07:32:46;11.60;;;2.07;;
67053;SDS011;53960;51.826;5.850;2023-04-25T07:35:12;11.10;;;2.13;;
67053;SDS011;53960;51.826;5.850;2023-04-25T07:37:37;9.43;;;1.57;;
67053;SDS011;53960;51.826;5.850;2023-04-25T07:40:03;10.20;;;1.80;;
67053;SDS011;53960;51.826;5.850;2023-04-25T07:42:29;9.00;;;1.90;;
67053;SDS011;53960;51.826;5.850;2023-04-25T07:44:54;10.63;;;1.83;;
67053;SDS011;53960;51.826;5.850;2023-04-25T07:47:20;7.43;;;1.47;;
67053;SDS011;53960;51.826;5.850;2023-04-25T07:49:45;12.87;;;2.20;;
67053;SDS011;53960;51.826;5.850;2023-04-25T07:52:12;12.10;;;2.08;;
67053;SDS011;53960;51.826;5.850;2023-04-25T07:54:37;11.23;;;1.77;;
67053;SDS011;53960;51.826;5.850;2023-04-25T07:57:02;9.43;;;1.80;;
67053;SDS011;53960;51.826;5.850;2023-04-25T07:59:28;8.57;;;1.73;;
67053;SDS011;53960;51.826;5.850;2023-04-25T08:01:53;10.43;;;1.50;;
67053;SDS011;53960;51.826;5.850;2023-04-25T08:04:18;11.67;;;1.87;;
67053;SDS011;53960;51.826;5.850;2023-04-25T08:06:44;7.90;;;1.50;;
67053;SDS011;53960;51.826;5.850;2023-04-25T08:09:10;10.63;;;1.92;;
67053;SDS011;53960;51.826;5.850;2023-04-25T08:11:36;9.33;;;1.73;;
67053;SDS011;53960;51.826;5.850;2023-04-25T08:14:01;7.75;;;1.50;;
67053;SDS011;53960;51.826;5.850;2023-04-25T08:16:27;10.03;;;1.70;;
67053;SDS011;53960;51.826;5.850;2023-04-25T08:18:53;9.82;;;1.75;;
67053;SDS011;53960;51.826;5.850;2023-04-25T08:21:18;7.97;;;1.50;;
67053;SDS011;53960;51.826;5.850;2023-04-25T08:23:43;8.67;;;1.53;;
67053;SDS011;53960;51.826;5.850;2023-04-25T08:26:09;10.83;;;1.83;;
67053;SDS011;53960;51.826;5.850;2023-04-25T08:28:34;10.05;;;1.60;;
67053;SDS011;53960;51.826;5.850;2023-04-25T08:30:59;10.00;;;1.40;;
67053;SDS011;53960;51.826;5.850;2023-04-25T08:33:25;8.73;;;1.67;;
67053;SDS011;53960;51.826;5.850;2023-04-25T08:35:50;11.40;;;1.80;;
67053;SDS011;53960;51.826;5.850;2023-04-25T08:38:18;10.77;;;1.70;;
67053;SDS011;53960;51.826;5.850;2023-04-25T08:40:44;9.43;;;1.55;;
67053;SDS011;53960;51.826;5.850;2023-04-25T08:43:15;7.23;;;1.37;;
67053;SDS011;53960;51.826;5.850;2023-04-25T08:45:43;9.02;;;1.70;;
67053;SDS011;53960;51.826;5.850;2023-04-25T08:48:13;9.45;;;1.40;;
67053;SDS011;53960;51.826;5.850;2023-04-25T08:50:50;9.65;;;1.63;;
67053;SDS011;53960;51.826;5.850;2023-04-25T08:53:31;8.93;;;1.40;;
67053;SDS011;53960;51.826;5.850;2023-04-25T08:55:58;10.47;;;1.33;;
67053;SDS011;53960;51.826;5.850;2023-04-25T08:58:26;7.75;;;1.35;;
67053;SDS011;53960;51.826;5.850;2023-04-25T09:00:52;7.10;;;1.42;;
67053;SDS011;53960;51.826;5.850;2023-04-25T09:03:18;9.43;;;1.40;;
67053;SDS011;53960;51.826;5.850;2023-04-25T09:05:43;8.65;;;1.70;;
67053;SDS011;53960;51.826;5.850;2023-04-25T09:08:09;9.87;;;1.53;;
67053;SDS011;53960;51.826;5.850;2023-04-25T09:10:35;8.70;;;1.40;;
67053;SDS011;53960;51.826;5.850;2023-04-25T09:13:05;8.63;;;1.60;;
67053;SDS011;53960;51.826;5.850;2023-04-25T09:15:52;9.05;;;1.52;;
67053;SDS011;53960;51.826;5.850;2023-04-25T09:18:25;7.38;;;1.45;;
67053;SDS011;53960;51.826;5.850;2023-04-25T09:21:05;10.43;;;1.58;;
67053;SDS011;53960;51.826;5.850;2023-04-25T09:23:31;10.25;;;2.15;;
67053;SDS011;53960;51.826;5.850;2023-04-25T09:26:06;8.80;;;1.43;;
67053;SDS011;53960;51.826;5.850;2023-04-25T09:28:32;7.97;;;1.35;;
67053;SDS011;53960;51.826;5.850;2023-04-25T09:30:59;9.88;;;1.20;;
67053;SDS011;53960;51.826;5.850;2023-04-25T09:33:29;7.10;;;1.10;;
67053;SDS011;53960;51.826;5.850;2023-04-25T09:36:03;7.53;;;1.13;;
67053;SDS011;53960;51.826;5.850;2023-04-25T09:38:31;10.07;;;1.33;;
67053;SDS011;53960;51.826;5.850;2023-04-25T09:40:58;6.82;;;1.20;;
67053;SDS011;53960;51.826;5.850;2023-04-25T09:43:24;6.05;;;0.98;;
67053;SDS011;53960;51.826;5.850;2023-04-25T09:45:53;5.93;;;1.63;;
67053;SDS011;53960;51.826;5.850;2023-04-25T09:48:22;7.03;;;1.13;;
67053;SDS011;53960;51.826;5.850;2023-04-25T09:51:08;11.02;;;1.42;;
67053;SDS011;53960;51.826;5.850;2023-04-25T09:53:39;6.28;;;1.13;;
67053;SDS011;53960;51.826;5.850;2023-04-25T09:56:06;6.03;;;1.38;;
67053;SDS011;53960;51.826;5.850;2023-04-25T09:58:33;5.07;;;1.00;;
67053;SDS011;53960;51.826;5.850;2023-04-25T10:01:01;8.52;;;1.30;;
67053;SDS011;53960;51.826;5.850;2023-04-25T10:03:31;8.07;;;1.00;;
67053;SDS011;53960;51.826;5.850;2023-04-25T10:06:01;6.28;;;0.80;;
67053;SDS011;53960;51.826;5.850;2023-04-25T10:08:33;6.15;;;1.25;;
67053;SDS011;53960;51.826;5.850;2023-04-25T10:11:03;8.97;;;1.83;;
67053;SDS011;53960;51.826;5.850;2023-04-25T10:13:30;7.22;;;0.90;;
67053;SDS011;53960;51.826;5.850;2023-04-25T10:16:00;6.72;;;0.90;;
67053;SDS011;53960;51.826;5.850;2023-04-25T10:18:27;7.57;;;0.90;;
67053;SDS011;53960;51.826;5.850;2023-04-25T10:20:57;7.15;;;1.23;;
67053;SDS011;53960;51.826;5.850;2023-04-25T10:23:24;5.30;;;0.80;;
67053;SDS011;53960;51.826;5.850;2023-04-25T10:25:50;6.03;;;1.33;;
67053;SDS011;53960;51.826;5.850;2023-04-25T10:28:17;6.00;;;1.30;;
67053;SDS011;53960;51.826;5.850;2023-04-25T10:30:58;6.33;;;1.03;;
67053;SDS011;53960;51.826;5.850;2023-04-25T10:33:34;5.55;;;0.80;;
67053;SDS011;53960;51.826;5.850;2023-04-25T10:36:13;6.18;;;0.90;;
67053;SDS011;53960;51.826;5.850;2023-04-25T10:38:39;6.15;;;1.00;;
67053;SDS011;53960;51.826;5.850;2023-04-25T10:41:08;8.55;;;1.08;;
67053;SDS011;53960;51.826;5.850;2023-04-25T10:43:37;6.57;;;1.00;;
67053;SDS011;53960;51.826;5.850;2023-04-25T10:46:25;4.72;;;0.88;;
67053;SDS011;53960;51.826;5.850;2023-04-25T10:48:52;5.95;;;1.25;;
67053;SDS011;53960;51.826;5.850;2023-04-25T10:53:56;6.68;;;1.38;;
67053;SDS011;53960;51.826;5.850;2023-04-25T10:56:28;7.80;;;1.10;;
67053;SDS011;53960;51.826;5.850;2023-04-25T10:59:13;8.13;;;1.55;;
67053;SDS011;53960;51.826;5.850;2023-04-25T11:01:47;6.55;;;1.10;;
67053;SDS011;53960;51.826;5.850;2023-04-25T11:04:22;8.10;;;1.20;;
67053;SDS011;53960;51.826;5.850;2023-04-25T11:09:33;6.43;;;1.13;;
67053;SDS011;53960;51.826;5.850;2023-04-25T11:11:59;7.10;;;1.15;;
67053;SDS011;53960;51.826;5.850;2023-04-25T11:14:25;7.00;;;1.10;;
67053;SDS011;53960;51.826;5.850;2023-04-25T11:16:57;7.00;;;1.10;;
67053;SDS011;53960;51.826;5.850;2023-04-25T11:19:23;7.70;;;1.30;;
67053;SDS011;53960;51.826;5.850;2023-04-25T11:21:49;6.60;;;1.05;;
67053;SDS011;53960;51.826;5.850;2023-04-25T11:24:17;8.10;;;1.17;;
67053;SDS011;53960;51.826;5.850;2023-04-25T11:26:43;8.15;;;1.02;;
67053;SDS011;53960;51.826;5.850;2023-04-25T11:29:12;6.30;;;1.02;;
67053;SDS011;53960;51.826;5.850;2023-04-25T11:31:37;7.07;;;1.30;;
67053;SDS011;53960;51.826;5.850;2023-04-25T11:34:03;8.47;;;1.30;;
67053;SDS011;53960;51.826;5.850;2023-04-25T11:36:28;6.10;;;1.00;;
67053;SDS011;53960;51.826;5.850;2023-04-25T11:38:53;5.32;;;0.95;;
67053;SDS011;53960;51.826;5.850;2023-04-25T11:41:19;8.20;;;1.30;;
67053;SDS011;53960;51.826;5.850;2023-04-25T11:43:47;7.97;;;1.13;;
67053;SDS011;53960;51.826;5.850;2023-04-25T11:46:13;7.50;;;1.00;;
67053;SDS011;53960;51.826;5.850;2023-04-25T11:48:39;5.57;;;0.88;;
67053;SDS011;53960;51.826;5.850;2023-04-25T11:51:05;8.18;;;1.20;;
67053;SDS011;53960;51.826;5.850;2023-04-25T11:53:31;7.57;;;1.27;;
67053;SDS011;53960;51.826;5.850;2023-04-25T11:55:56;6.87;;;1.43;;
67053;SDS011;53960;51.826;5.850;2023-04-25T11:58:22;4.80;;;0.70;;
67053;SDS011;53960;51.826;5.850;2023-04-25T12:00:47;6.63;;;1.00;;
67053;SDS011;53960;51.826;5.850;2023-04-25T12:03:13;4.70;;;0.90;;
67053;SDS011;53960;51.826;5.850;2023-04-25T12:05:38;7.40;;;0.90;;
67053;SDS011;53960;51.826;5.850;2023-04-25T12:10:40;4.90;;;1.10;;
67053;SDS011;53960;51.826;5.850;2023-04-25T12:13:20;4.88;;;0.90;;
67053;SDS011;53960;51.826;5.850;2023-04-25T12:15:46;5.83;;;1.13;;
67053;SDS011;53960;51.826;5.850;2023-04-25T12:18:11;5.80;;;0.90;;
67053;SDS011;53960;51.826;5.850;2023-04-25T12:20:36;5.53;;;1.17;;
67053;SDS011;53960;51.826;5.850;2023-04-25T12:23:05;5.37;;;0.87;;
67053;SDS011;53960;51.826;5.850;2023-04-25T12:25:36;6.70;;;0.80;;
67053;SDS011;53960;51.826;5.850;2023-04-25T12:28:24;9.00;;;1.10;;
67053;SDS011;53960;51.826;5.850;2023-04-25T12:33:17;7.77;;;1.10;;
67053;SDS011;53960;51.826;5.850;2023-04-25T12:35:42;7.97;;;1.23;;
67053;SDS011;53960;51.826;5.850;2023-04-25T12:38:08;9.93;;;1.20;;
67053;SDS011;53960;51.826;5.850;2023-04-25T12:40:33;8.15;;;1.40;;
67053;SDS011;53960;51.826;5.850;2023-04-25T12:42:58;7.33;;;1.10;;
67053;SDS011;53960;51.826;5.850;2023-04-25T12:45:24;6.33;;;1.10;;
67053;SDS011;53960;51.826;5.850;2023-04-25T12:47:49;5.33;;;1.07;;
67053;SDS011;53960;51.826;5.850;2023-04-25T12:50:14;7.67;;;1.33;;
67053;SDS011;53960;51.826;5.850;2023-04-25T12:52:40;6.07;;;1.57;;
67053;SDS011;53960;51.826;5.850;2023-04-25T12:55:05;6.70;;;1.30;;
67053;SDS011;53960;51.826;5.850;2023-04-25T12:57:31;9.95;;;1.10;;
67053;SDS011;53960;51.826;5.850;2023-04-25T12:59:56;5.17;;;0.90;;
67053;SDS011;53960;51.826;5.850;2023-04-25T13:02:21;6.63;;;1.20;;
67053;SDS011;53960;51.826;5.850;2023-04-25T13:04:47;6.83;;;1.10;;
67053;SDS011;53960;51.826;5.850;2023-04-25T13:07:12;11.10;;;1.35;;
67053;SDS011;53960;51.826;5.850;2023-04-25T13:09:37;5.73;;;1.10;;
67053;SDS011;53960;51.826;5.850;2023-04-25T13:12:03;5.13;;;1.13;;
67053;SDS011;53960;51.826;5.850;2023-04-25T13:14:29;4.82;;;1.08;;
67053;SDS011;53960;51.826;5.850;2023-04-25T13:16:54;4.70;;;0.93;;
67053;SDS011;53960;51.826;5.850;2023-04-25T13:19:19;5.27;;;1.00;;
67053;SDS011;53960;51.826;5.850;2023-04-25T13:21:45;7.07;;;1.23;;
67053;SDS011;53960;51.826;5.850;2023-04-25T13:24:10;5.60;;;1.20;;
67053;SDS011;53960;51.826;5.850;2023-04-25T13:26:35;5.83;;;1.00;;
67053;SDS011;53960;51.826;5.850;2023-04-25T13:29:01;9.00;;;1.17;;
67053;SDS011;53960;51.826;5.850;2023-04-25T13:31:28;5.38;;;0.93;;
67053;SDS011;53960;51.826;5.850;2023-04-25T13:33:54;5.80;;;0.90;;
67053;SDS011;53960;51.826;5.850;2023-04-25T13:36:19;6.50;;;1.00;;
67053;SDS011;53960;51.826;5.850;2023-04-25T13:38:44;8.00;;;1.07;;
67053;SDS011;53960;51.826;5.850;2023-04-25T13:41:12;6.97;;;1.05;;
67053;SDS011;53960;51.826;5.850;2023-04-25T13:43:42;7.28;;;1.23;;
67053;SDS011;53960;51.826;5.850;2023-04-25T13:46:07;6.37;;;1.10;;
67053;SDS011;53960;51.826;5.850;2023-04-25T13:48:33;8.30;;;1.20;;
67053;SDS011;53960;51.826;5.850;2023-04-25T13:50:58;8.43;;;1.20;;
67053;SDS011;53960;51.826;5.850;2023-04-25T13:53:24;6.90;;;1.40;;
67053;SDS011;53960;51.826;5.850;2023-04-25T13:55:49;5.05;;;1.50;;
67053;SDS011;53960;51.826;5.850;2023-04-25T13:58:15;8.53;;;1.17;;
67053;SDS011;53960;51.826;5.850;2023-04-25T14:00:40;6.00;;;1.00;;
67053;SDS011;53960;51.826;5.850;2023-04-25T14:03:08;6.07;;;1.20;;
67053;SDS011;53960;51.826;5.850;2023-04-25T14:05:34;4.90;;;1.00;;
67053;SDS011;53960;51.826;5.850;2023-04-25T14:08:03;5.18;;;0.90;;
67053;SDS011;53960;51.826;5.850;2023-04-25T14:10:29;6.55;;;1.17;;
67053;SDS011;53960;51.826;5.850;2023-04-25T14:12:54;5.27;;;1.40;;
67053;SDS011;53960;51.826;5.850;2023-04-25T14:15:20;6.37;;;1.30;;
67053;SDS011;53960;51.826;5.850;2023-04-25T14:17:45;6.00;;;1.15;;
67053;SDS011;53960;51.826;5.850;2023-04-25T14:20:13;6.53;;;1.20;;
67053;SDS011;53960;51.826;5.850;2023-04-25T14:22:38;5.13;;;0.80;;
67053;SDS011;53960;51.826;5.850;2023-04-25T14:25:07;6.18;;;0.90;;
67053;SDS011;53960;51.826;5.850;2023-04-25T14:27:34;5.93;;;1.00;;
67053;SDS011;53960;51.826;5.850;2023-04-25T14:29:59;5.95;;;1.02;;
67053;SDS011;53960;51.826;5.850;2023-04-25T14:32:24;6.37;;;1.37;;
67053;SDS011;53960;51.826;5.850;2023-04-25T14:34:49;6.10;;;0.90;;
67053;SDS011;53960;51.826;5.850;2023-04-25T14:37:15;7.85;;;1.95;;
67053;SDS011;53960;51.826;5.850;2023-04-25T14:39:41;6.07;;;1.17;;
67053;SDS011;53960;51.826;5.850;2023-04-25T14:42:06;8.93;;;1.33;;
67053;SDS011;53960;51.826;5.850;2023-04-25T14:44:31;7.20;;;1.30;;
67053;SDS011;53960;51.826;5.850;2023-04-25T14:46:57;9.57;;;1.37;;